createdAt,value
2019-05-18T00:00:08.783Z,91.41
2019-05-18T00:02:38.285Z,91.52
2019-05-18T00:05:08.043Z,91.36
2019-05-18T00:07:36.620Z,91.18
2019-05-18T00:10:06.321Z,91.12
2019-05-18T00:12:34.826Z,91.13
2019-05-18T00:15:05.056Z,91.10
2019-05-18T00:17:33.544Z,90.96
2019-05-18T00:20:02.096Z,90.82
2019-05-18T00:22:30.645Z,90.72
2019-05-18T00:24:59.164Z,90.53
2019-05-18T00:27:27.697Z,90.33
2019-05-18T00:29:56.285Z,90.26
2019-05-18T00:32:24.812Z,90.20
2019-05-18T00:34:53.297Z,90.09
2019-05-18T00:37:22.122Z,89.93
2019-05-18T00:39:50.775Z,89.84
2019-05-18T00:42:19.261Z,89.78
2019-05-18T00:44:47.772Z,89.73
2019-05-18T00:47:16.265Z,89.56
2019-05-18T00:49:44.763Z,89.47
2019-05-18T00:52:13.298Z,89.40
2019-05-18T00:54:41.879Z,89.52
2019-05-18T00:57:10.432Z,89.70
2019-05-18T00:59:39.010Z,89.89
2019-05-18T01:02:07.575Z,90.07
2019-05-18T01:04:36.057Z,90.18
2019-05-18T01:07:04.595Z,90.29
2019-05-18T01:09:33.116Z,90.32
2019-05-18T01:12:01.598Z,90.40
2019-05-18T01:14:30.150Z,90.54
2019-05-18T01:16:58.675Z,90.51
2019-05-18T01:19:27.169Z,90.73
2019-05-18T01:21:55.894Z,90.90
2019-05-18T01:24:24.385Z,90.80
2019-05-18T01:26:52.879Z,90.96
2019-05-18T01:29:21.392Z,91.13
2019-05-18T01:31:49.900Z,90.83
2019-05-18T01:34:18.403Z,90.99
2019-05-18T01:36:46.931Z,91.00
2019-05-18T01:39:15.722Z,91.01
2019-05-18T01:41:44.207Z,91.07
2019-05-18T01:44:12.736Z,91.23
2019-05-18T01:46:41.234Z,91.38
2019-05-18T01:49:09.710Z,91.16
2019-05-18T01:51:38.246Z,91.30
2019-05-18T01:54:06.751Z,91.41
2019-05-18T01:56:35.221Z,91.32
2019-05-18T01:59:03.776Z,91.65
2019-05-18T02:01:32.262Z,91.57
2019-05-18T02:04:00.801Z,91.42
2019-05-18T02:06:29.311Z,91.24
2019-05-18T02:08:57.819Z,91.27
2019-05-18T02:11:26.310Z,91.31
2019-05-18T02:13:54.849Z,91.44
2019-05-18T02:16:23.345Z,91.57
2019-05-18T02:18:51.831Z,91.69
2019-05-18T02:21:20.356Z,91.56
2019-05-18T02:23:48.909Z,91.75
2019-05-18T02:26:17.400Z,91.76
2019-05-18T02:28:46.015Z,91.79
2019-05-18T02:31:14.489Z,91.75
2019-05-18T02:33:42.981Z,91.79
2019-05-18T02:36:11.505Z,91.72
2019-05-18T02:38:39.996Z,91.55
2019-05-18T02:41:09.704Z,91.45
2019-05-18T02:43:38.233Z,91.65
2019-05-18T02:46:06.716Z,91.66
2019-05-18T02:48:48.863Z,91.90
2019-05-18T02:51:05.471Z,91.66
2019-05-18T02:53:33.992Z,91.46
2019-05-18T02:56:02.555Z,91.33
2019-05-18T02:58:31.084Z,91.28
2019-05-18T03:00:59.581Z,91.28
2019-05-18T03:03:28.162Z,91.06
2019-05-18T03:05:56.765Z,91.14
2019-05-18T03:08:25.311Z,90.82
2019-05-18T03:10:53.880Z,90.53
2019-05-18T03:13:22.477Z,90.42
2019-05-18T03:15:51.065Z,90.49
2019-05-18T03:18:19.550Z,90.66
2019-05-18T03:20:48.061Z,90.85
2019-05-18T03:23:16.562Z,90.78
2019-05-18T03:25:45.043Z,91.05
2019-05-18T03:28:13.577Z,91.06
2019-05-18T03:30:42.386Z,90.78
2019-05-18T03:33:11.017Z,90.83
2019-05-18T03:35:39.735Z,90.71
2019-05-18T03:38:08.384Z,90.82
2019-05-18T03:40:36.928Z,91.03
2019-05-18T03:43:06.544Z,91.29
2019-05-18T03:45:35.015Z,91.66
2019-05-18T03:48:03.565Z,91.73
2019-05-18T03:50:32.121Z,91.98
2019-05-18T03:53:00.673Z,91.97
2019-05-18T03:55:29.244Z,91.98
2019-05-18T03:57:59.295Z,91.95
2019-05-18T04:00:29.503Z,92.11
2019-05-18T04:02:58.358Z,92.08
2019-05-18T04:05:26.874Z,91.94
2019-05-18T04:07:55.363Z,92.01
2019-05-18T04:10:29.175Z,91.89
2019-05-18T04:12:57.771Z,92.00
2019-05-18T04:15:26.267Z,91.91
2019-05-18T04:17:54.775Z,92.28
2019-05-18T04:20:23.310Z,92.22
2019-05-18T04:22:51.789Z,92.30
2019-05-18T04:25:20.288Z,92.42
2019-05-18T04:27:48.832Z,92.52
2019-05-18T04:30:17.392Z,92.41
2019-05-18T04:32:45.877Z,92.37
2019-05-18T04:35:14.460Z,92.26
2019-05-18T04:37:42.945Z,92.04
2019-05-18T04:40:11.778Z,92.06
2019-05-18T04:42:40.319Z,92.00
2019-05-18T04:45:09.141Z,91.74
2019-05-18T04:47:37.614Z,91.41
2019-05-18T04:50:07.794Z,91.31
2019-05-18T04:52:36.372Z,91.03
2019-05-18T04:55:05.999Z,90.88
2019-05-18T04:57:34.509Z,90.65
2019-05-18T05:00:03.485Z,90.12
2019-05-18T05:02:31.964Z,90.00
2019-05-18T05:05:00.886Z,89.69
2019-05-18T05:07:29.392Z,89.56
2019-05-18T05:09:57.867Z,89.38
2019-05-18T05:12:26.398Z,89.18
2019-05-18T05:14:54.872Z,89.04
2019-05-18T05:17:23.362Z,88.75
2019-05-18T05:19:51.884Z,88.31
2019-05-18T05:22:20.369Z,88.22
2019-05-18T05:24:48.850Z,87.96
2019-05-18T05:27:17.376Z,87.59
2019-05-18T05:29:45.870Z,87.09
2019-05-18T05:32:14.345Z,86.60
2019-05-18T05:34:42.890Z,86.48
2019-05-18T05:37:11.370Z,86.18
2019-05-18T05:39:39.854Z,85.93
2019-05-18T05:42:08.405Z,85.83
2019-05-18T05:44:36.891Z,85.91
2019-05-18T05:47:05.838Z,85.86
2019-05-18T05:49:34.378Z,85.92
2019-05-18T05:52:02.864Z,85.81
2019-05-18T05:54:31.351Z,85.61
2019-05-18T05:56:59.935Z,85.41
2019-05-18T05:59:28.420Z,85.05
2019-05-18T06:01:56.908Z,84.77
2019-05-18T06:04:25.451Z,84.64
2019-05-18T06:06:53.929Z,84.26
2019-05-18T06:09:22.439Z,84.22
2019-05-18T06:11:50.945Z,84.21
2019-05-18T06:14:19.432Z,84.06
2019-05-18T06:16:47.997Z,83.78
2019-05-18T06:19:16.600Z,83.49
2019-05-18T06:21:45.090Z,83.38
2019-05-18T06:24:13.592Z,83.12
2019-05-18T06:26:42.090Z,82.80
2019-05-18T06:29:10.646Z,82.40
2019-05-18T06:31:39.151Z,81.93
2019-05-18T06:34:07.696Z,81.43
2019-05-18T06:36:36.192Z,81.17
2019-05-18T06:39:06.676Z,80.98
2019-05-18T06:41:35.265Z,81.03
2019-05-18T06:44:04.403Z,80.81
2019-05-18T06:46:33.009Z,81.41
2019-05-18T06:49:02.544Z,82.06
2019-05-18T06:51:31.025Z,82.20
2019-05-18T06:53:59.512Z,82.04
2019-05-18T06:56:28.246Z,81.81
2019-05-18T06:58:57.620Z,81.25
2019-05-18T07:01:26.099Z,81.16
2019-05-18T07:03:54.625Z,81.32
2019-05-18T07:06:23.113Z,81.22
2019-05-18T07:08:51.604Z,80.95
2019-05-18T07:11:20.192Z,80.55
2019-05-18T07:13:48.680Z,80.55
2019-05-18T07:16:17.384Z,80.55
2019-05-18T07:18:45.914Z,80.01
2019-05-18T07:21:21.969Z,79.94
2019-05-18T07:23:44.606Z,79.33
2019-05-18T07:26:13.155Z,78.66
2019-05-18T07:28:41.641Z,78.58
2019-05-18T07:31:10.505Z,78.67
2019-05-18T07:33:39.065Z,78.19
2019-05-18T07:36:07.546Z,77.37
2019-05-18T07:38:36.035Z,77.16
2019-05-18T07:41:04.548Z,76.64
2019-05-18T07:43:33.025Z,76.26
2019-05-18T07:46:01.521Z,75.90
2019-05-18T07:48:30.038Z,75.21
2019-05-18T07:50:58.718Z,74.34
2019-05-18T07:53:27.226Z,74.07
2019-05-18T07:55:55.806Z,73.32
2019-05-18T07:58:24.293Z,73.00
2019-05-18T08:00:52.790Z,72.53
2019-05-18T08:03:21.346Z,71.96
2019-05-18T08:05:49.883Z,70.86
2019-05-18T08:08:18.384Z,71.23
2019-05-18T08:10:46.937Z,70.23
2019-05-18T08:13:15.439Z,68.83
2019-05-18T08:15:43.928Z,68.97
2019-05-18T08:18:12.639Z,68.83
2019-05-18T08:20:41.169Z,68.43
2019-05-18T08:23:09.676Z,68.51
2019-05-18T08:25:38.210Z,67.42
2019-05-18T08:28:06.685Z,66.68
2019-05-18T08:30:35.161Z,64.52
2019-05-18T08:33:03.697Z,63.65
2019-05-18T08:35:32.187Z,62.83
2019-05-18T08:38:00.671Z,62.72
2019-05-18T08:40:29.206Z,62.23
2019-05-18T08:42:57.717Z,62.61
2019-05-18T08:45:26.211Z,61.92
2019-05-18T08:47:54.800Z,62.19
2019-05-18T08:50:23.293Z,60.33
2019-05-18T08:52:52.181Z,59.79
2019-05-18T08:55:20.708Z,59.71
2019-05-18T08:57:49.216Z,59.73
2019-05-18T09:00:17.779Z,57.88
2019-05-18T09:02:46.301Z,58.18
2019-05-18T09:05:15.066Z,58.59
2019-05-18T09:07:43.537Z,58.34
2019-05-18T09:10:12.229Z,57.50
2019-05-18T09:12:40.712Z,55.89
2019-05-18T09:15:09.343Z,55.26
2019-05-18T09:17:37.888Z,54.65
2019-05-18T09:20:07.308Z,54.31
2019-05-18T09:22:35.796Z,54.51
2019-05-18T09:25:06.501Z,55.02
2019-05-18T09:27:34.989Z,55.10
2019-05-18T09:30:04.368Z,55.75
2019-05-18T09:32:32.925Z,55.81
2019-05-18T09:35:01.456Z,56.06
2019-05-18T09:37:29.977Z,55.75
2019-05-18T09:39:58.526Z,56.32
2019-05-18T09:42:27.012Z,55.69
2019-05-18T09:44:55.499Z,55.05
2019-05-18T09:47:24.059Z,55.09
2019-05-18T09:49:52.544Z,55.04
2019-05-18T09:52:21.033Z,55.47
2019-05-18T09:54:50.949Z,55.30
2019-05-18T09:57:19.434Z,54.48
2019-05-18T09:59:47.915Z,54.57
2019-05-18T10:02:16.482Z,53.71
2019-05-18T10:04:45.081Z,53.50
2019-05-18T10:07:13.572Z,53.19
2019-05-18T10:09:42.112Z,52.87
2019-05-18T10:12:10.582Z,52.41
2019-05-18T10:14:39.069Z,52.50
2019-05-18T10:17:07.610Z,52.50
2019-05-18T10:19:36.121Z,51.80
2019-05-18T10:22:04.615Z,51.94
2019-05-18T10:24:33.142Z,52.14
2019-05-18T10:27:01.639Z,51.72
2019-05-18T10:29:30.128Z,51.46
2019-05-18T10:31:58.679Z,50.89
2019-05-18T10:34:27.149Z,52.04
2019-05-18T10:36:55.631Z,51.79
2019-05-18T10:39:24.188Z,51.78
2019-05-18T10:41:52.677Z,51.36
2019-05-18T10:44:21.167Z,50.90
2019-05-18T10:46:49.685Z,50.28
2019-05-18T10:49:18.169Z,49.88
2019-05-18T10:51:46.658Z,49.52
2019-05-18T10:54:15.175Z,49.80
2019-05-18T10:56:44.028Z,49.47
2019-05-18T10:59:12.508Z,49.79
2019-05-18T11:01:43.843Z,49.81
2019-05-18T11:04:11.268Z,50.36
2019-05-18T11:06:39.738Z,49.66
2019-05-18T11:09:08.306Z,48.94
2019-05-18T11:11:36.945Z,47.74
2019-05-18T11:14:05.493Z,47.16
2019-05-18T11:16:34.034Z,47.62
2019-05-18T11:19:02.521Z,47.31
2019-05-18T11:21:31.002Z,47.30
2019-05-18T11:23:59.508Z,47.45
2019-05-18T11:26:27.988Z,47.56
2019-05-18T11:28:56.491Z,47.89
2019-05-18T11:31:25.154Z,47.58
2019-05-18T11:33:53.662Z,47.80
2019-05-18T11:36:22.208Z,47.36
2019-05-18T11:38:50.762Z,47.25
2019-05-18T11:41:19.249Z,47.30
2019-05-18T11:43:47.730Z,47.38
2019-05-18T11:46:16.264Z,47.21
2019-05-18T11:48:44.744Z,46.00
2019-05-18T11:51:13.235Z,46.34
2019-05-18T11:53:41.772Z,46.73
2019-05-18T11:56:10.262Z,47.17
2019-05-18T11:58:39.818Z,46.87
2019-05-18T12:01:08.339Z,47.20
2019-05-18T12:03:36.826Z,46.90
2019-05-18T12:06:05.483Z,46.45
2019-05-18T12:08:34.019Z,46.30
2019-05-18T12:11:02.497Z,46.20
2019-05-18T12:13:30.983Z,45.85
2019-05-18T12:15:59.571Z,46.69
2019-05-18T12:18:28.050Z,46.16
2019-05-18T12:20:56.536Z,44.83
2019-05-18T12:23:25.066Z,44.62
2019-05-18T12:25:53.569Z,45.28
2019-05-18T12:28:22.066Z,45.68
2019-05-18T12:30:50.602Z,45.92
2019-05-18T12:33:19.086Z,45.86
2019-05-18T12:35:47.585Z,46.16
2019-05-18T12:38:16.093Z,45.47
2019-05-18T12:40:44.582Z,45.49
2019-05-18T12:43:13.120Z,43.46
2019-05-18T12:45:41.683Z,42.82
2019-05-18T12:48:10.237Z,43.25
2019-05-18T12:50:38.733Z,44.90
2019-05-18T12:53:07.256Z,47.37
2019-05-18T12:55:35.753Z,48.39
2019-05-18T12:58:04.236Z,48.98
2019-05-18T13:00:33.909Z,49.54
2019-05-18T13:03:02.454Z,49.55
2019-05-18T13:05:30.916Z,50.16
2019-05-18T13:07:59.451Z,50.35
2019-05-18T13:10:28.001Z,50.50
2019-05-18T13:12:56.483Z,51.06
2019-05-18T13:15:25.083Z,51.58
2019-05-18T13:17:53.570Z,52.44
2019-05-18T13:20:22.198Z,53.08
2019-05-18T13:22:50.882Z,53.73
2019-05-18T13:25:19.693Z,53.83
2019-05-18T13:27:48.245Z,53.10
2019-05-18T13:30:19.950Z,53.29
2019-05-18T13:32:47.443Z,54.00
2019-05-18T13:35:16.270Z,54.61
2019-05-18T13:37:44.802Z,55.50
2019-05-18T13:40:13.757Z,56.01
2019-05-18T13:42:42.241Z,56.38
2019-05-18T13:45:11.437Z,55.84
2019-05-18T13:47:39.930Z,55.68
2019-05-18T13:50:10.351Z,55.89
2019-05-18T13:52:38.915Z,56.55
2019-05-18T13:55:07.544Z,56.55
2019-05-18T13:57:36.240Z,56.46
2019-05-18T14:00:08.345Z,56.08
2019-05-18T14:02:37.977Z,55.75
2019-05-18T14:05:07.100Z,54.82
2019-05-18T14:07:35.697Z,54.89
2019-05-18T14:10:06.515Z,55.08
2019-05-18T14:12:35.004Z,55.17
2019-05-18T14:15:04.421Z,55.34
2019-05-18T14:17:32.898Z,55.13
2019-05-18T14:20:01.378Z,55.51
2019-05-18T14:22:29.911Z,55.94
2019-05-18T14:24:58.407Z,55.96
2019-05-18T14:27:26.926Z,54.91
2019-05-18T14:29:55.464Z,55.28
2019-05-18T14:32:23.929Z,55.35
2019-05-18T14:34:52.407Z,55.30
2019-05-18T14:37:20.944Z,55.50
2019-05-18T14:39:49.425Z,55.43
2019-05-18T14:42:17.907Z,55.25
2019-05-18T14:44:46.428Z,55.36
2019-05-18T14:47:15.075Z,54.85
2019-05-18T14:49:43.602Z,55.15
2019-05-18T14:52:12.465Z,55.01
2019-05-18T14:54:41.119Z,55.46
2019-05-18T14:57:09.593Z,55.89
2019-05-18T14:59:38.134Z,55.79
2019-05-18T15:02:06.616Z,55.63
2019-05-18T15:04:35.389Z,55.36
2019-05-18T15:07:03.980Z,55.51
2019-05-18T15:09:32.463Z,54.03
2019-05-18T15:12:00.959Z,53.32
2019-05-18T15:14:29.489Z,53.69
2019-05-18T15:16:59.588Z,54.19
2019-05-18T15:19:28.745Z,54.30
2019-05-18T15:21:57.301Z,54.53
2019-05-18T15:24:25.796Z,54.14
2019-05-18T15:26:54.311Z,54.35
2019-05-18T15:29:22.815Z,54.32
2019-05-18T15:31:51.311Z,54.48
2019-05-18T15:34:19.859Z,54.92
2019-05-18T15:36:48.357Z,55.06
2019-05-18T15:39:16.865Z,55.29
2019-05-18T15:41:45.387Z,55.43
2019-05-18T15:44:13.881Z,55.32
2019-05-18T15:46:42.362Z,55.65
2019-05-18T15:49:10.932Z,56.12
2019-05-18T15:51:39.467Z,56.66
2019-05-18T15:54:08.138Z,56.75
2019-05-18T15:56:36.665Z,56.51
2019-05-18T15:59:05.167Z,56.56
2019-05-18T16:01:33.651Z,56.61
2019-05-18T16:04:02.197Z,56.54
2019-05-18T16:06:31.876Z,56.60
2019-05-18T16:09:00.372Z,56.86
2019-05-18T16:11:29.065Z,57.42
2019-05-18T16:13:57.556Z,57.73
2019-05-18T16:16:26.036Z,57.35
2019-05-18T16:18:54.566Z,57.68
2019-05-18T16:21:23.059Z,57.92
2019-05-18T16:23:51.537Z,57.91
2019-05-18T16:26:21.924Z,58.31
2019-05-18T16:28:50.396Z,58.47
2019-05-18T16:31:18.834Z,58.58
2019-05-18T16:33:47.501Z,58.49
2019-05-18T16:36:16.015Z,58.19
2019-05-18T16:38:44.535Z,57.91
2019-05-18T16:41:13.105Z,57.24
2019-05-18T16:43:41.592Z,56.64
2019-05-18T16:46:10.075Z,56.23
2019-05-18T16:48:39.488Z,55.90
2019-05-18T16:51:08.192Z,55.39
2019-05-18T16:53:36.775Z,55.19
2019-05-18T16:56:05.363Z,55.11
2019-05-18T16:58:33.842Z,54.68
2019-05-18T17:01:02.400Z,54.80
2019-05-18T17:03:30.954Z,55.03
2019-05-18T17:05:59.443Z,55.11
2019-05-18T17:08:28.712Z,54.92
2019-05-18T17:10:57.234Z,55.03
2019-05-18T17:13:25.735Z,55.37
2019-05-18T17:15:54.207Z,55.61
2019-05-18T17:18:22.735Z,55.71
2019-05-18T17:20:51.216Z,55.46
2019-05-18T17:23:19.784Z,55.54
2019-05-18T17:25:48.330Z,56.04
2019-05-18T17:28:19.441Z,56.45
2019-05-18T17:30:47.939Z,57.21
2019-05-18T17:33:16.452Z,58.16
2019-05-18T17:35:59.414Z,58.74
2019-05-18T17:38:15.824Z,59.41
2019-05-18T17:40:45.645Z,60.28
2019-05-18T17:43:14.152Z,61.23
2019-05-18T17:45:42.651Z,61.95
2019-05-18T17:48:11.171Z,62.82
2019-05-18T17:50:39.664Z,63.58
2019-05-18T17:53:08.249Z,64.30
2019-05-18T17:55:36.969Z,65.15
2019-05-18T17:58:05.703Z,65.57
2019-05-18T18:00:34.201Z,66.04
2019-05-18T18:03:02.770Z,66.55
2019-05-18T18:05:31.288Z,67.05
2019-05-18T18:07:59.846Z,67.30
2019-05-18T18:10:28.373Z,67.70
2019-05-18T18:12:56.857Z,67.97
2019-05-18T18:15:25.411Z,68.31
2019-05-18T18:17:53.990Z,68.54
2019-05-18T18:20:22.619Z,68.92
2019-05-18T18:22:51.111Z,69.19
2019-05-18T18:25:19.757Z,69.35
2019-05-18T18:27:48.222Z,69.54
2019-05-18T18:30:17.115Z,69.75
2019-05-18T18:32:45.678Z,70.04
2019-05-18T18:35:14.315Z,70.35
2019-05-18T18:37:43.166Z,70.67
2019-05-18T18:40:13.909Z,70.99
2019-05-18T18:42:42.404Z,71.16
2019-05-18T18:45:11.140Z,71.45
2019-05-18T18:47:39.649Z,71.71
2019-05-18T18:50:09.103Z,71.89
2019-05-18T18:52:37.666Z,72.16
2019-05-18T18:55:09.297Z,72.40
2019-05-18T18:57:41.763Z,72.62
2019-05-18T19:00:08.753Z,72.88
2019-05-18T19:02:37.291Z,73.10
2019-05-18T19:05:07.498Z,73.25
2019-05-18T19:07:35.998Z,73.47
2019-05-18T19:10:05.645Z,73.70
2019-05-18T19:12:34.378Z,73.85
2019-05-18T19:15:05.153Z,73.90
2019-05-18T19:17:33.703Z,74.04
2019-05-18T19:20:02.197Z,74.19
2019-05-18T19:22:30.688Z,74.38
2019-05-18T19:24:59.217Z,74.40
2019-05-18T19:27:27.706Z,74.56
2019-05-18T19:29:56.189Z,74.68
2019-05-18T19:32:24.711Z,74.92
2019-05-18T19:34:53.229Z,75.06
2019-05-18T19:37:21.751Z,75.14
2019-05-18T19:39:50.293Z,75.43
2019-05-18T19:42:18.790Z,75.54
2019-05-18T19:44:47.315Z,75.67
2019-05-18T19:47:16.093Z,75.86
2019-05-18T19:49:44.595Z,75.98
2019-05-18T19:52:13.121Z,76.20
2019-05-18T19:54:41.748Z,76.38
2019-05-18T19:57:10.260Z,76.59
2019-05-18T19:59:38.814Z,76.73
2019-05-18T20:02:07.430Z,76.92
2019-05-18T20:04:35.909Z,77.11
2019-05-18T20:07:04.395Z,77.21
2019-05-18T20:09:32.973Z,77.33
2019-05-18T20:12:01.846Z,77.48
2019-05-18T20:14:30.369Z,77.46
2019-05-18T20:16:58.916Z,77.66
2019-05-18T20:19:38.596Z,77.81
2019-05-18T20:21:57.615Z,77.90
2019-05-18T20:24:26.160Z,77.93
2019-05-18T20:26:54.661Z,78.01
2019-05-18T20:29:23.149Z,78.12
2019-05-18T20:31:51.685Z,78.20
2019-05-18T20:34:20.180Z,78.20
2019-05-18T20:36:48.671Z,78.34
2019-05-18T20:39:17.263Z,78.50
2019-05-18T20:41:45.762Z,78.57
2019-05-18T20:44:14.247Z,78.54
2019-05-18T20:46:42.769Z,78.57
2019-05-18T20:49:11.273Z,78.70
2019-05-18T20:51:39.761Z,78.96
2019-05-18T20:54:08.364Z,79.02
2019-05-18T20:56:36.843Z,79.04
2019-05-18T20:59:05.393Z,79.29
2019-05-18T21:01:33.926Z,79.36
2019-05-18T21:04:02.429Z,79.29
2019-05-18T21:06:30.906Z,79.49
2019-05-18T21:08:59.445Z,79.47
2019-05-18T21:11:27.932Z,79.49
2019-05-18T21:13:58.309Z,79.58
2019-05-18T21:16:26.794Z,79.71
2019-05-18T21:18:55.287Z,79.81
2019-05-18T21:21:25.863Z,79.85
2019-05-18T21:23:54.088Z,79.85
2019-05-18T21:26:22.571Z,80.17
2019-05-18T21:28:56.421Z,80.35
2019-05-18T21:31:21.314Z,80.67
2019-05-18T21:33:49.982Z,80.87
2019-05-18T21:36:18.512Z,81.09
2019-05-18T21:38:46.997Z,81.38
2019-05-18T21:41:15.483Z,81.46
2019-05-18T21:43:44.024Z,81.58
2019-05-18T21:46:12.505Z,82.15
2019-05-18T21:48:40.987Z,82.25
2019-05-18T21:51:09.502Z,82.31
2019-05-18T21:53:37.997Z,82.36
2019-05-18T21:56:06.491Z,82.45
2019-05-18T21:58:35.031Z,82.59
2019-05-18T22:01:03.594Z,82.76
2019-05-18T22:03:32.123Z,82.90
2019-05-18T22:06:00.644Z,82.96
2019-05-18T22:08:29.130Z,83.03
2019-05-18T22:10:57.616Z,83.18
2019-05-18T22:13:26.313Z,83.35
2019-05-18T22:15:55.832Z,83.60
2019-05-18T22:18:25.070Z,83.57
2019-05-18T22:20:53.765Z,83.60
2019-05-18T22:23:22.244Z,83.58
2019-05-18T22:25:50.725Z,83.54
2019-05-18T22:28:19.268Z,83.59
2019-05-18T22:30:47.748Z,83.80
2019-05-18T22:33:16.229Z,84.09
2019-05-18T22:35:44.743Z,84.14
2019-05-18T22:38:13.236Z,84.12
2019-05-18T22:40:41.729Z,83.97
2019-05-18T22:43:10.281Z,84.04
2019-05-18T22:45:38.755Z,84.19
2019-05-18T22:48:07.248Z,84.44
2019-05-18T22:50:35.969Z,84.79
2019-05-18T22:53:04.421Z,85.19
2019-05-18T22:55:32.904Z,85.29
2019-05-18T22:58:01.450Z,85.44
2019-05-18T23:00:29.937Z,85.42
2019-05-18T23:02:58.413Z,85.37
2019-05-18T23:05:26.938Z,85.28
2019-05-18T23:07:55.417Z,85.32
2019-05-18T23:10:23.904Z,85.19
2019-05-18T23:12:52.449Z,84.99
2019-05-18T23:15:20.996Z,85.04
2019-05-18T23:17:49.748Z,85.26
2019-05-18T23:20:18.361Z,85.44
2019-05-18T23:22:46.859Z,85.44
2019-05-18T23:25:15.513Z,85.49
2019-05-18T23:27:44.093Z,85.52
2019-05-18T23:30:12.603Z,85.45
2019-05-18T23:32:41.081Z,85.52
2019-05-18T23:35:09.684Z,85.46
2019-05-18T23:37:38.191Z,85.62
2019-05-18T23:40:07.192Z,85.57
2019-05-18T23:42:35.707Z,85.75
2019-05-18T23:45:08.007Z,85.88
2019-05-18T23:47:36.506Z,85.63
2019-05-18T23:50:05.786Z,85.46
2019-05-18T23:52:34.268Z,85.48
2019-05-18T23:55:02.842Z,85.60
2019-05-18T23:57:31.373Z,85.49
2019-05-18T23:59:59.843Z,85.72
